Weather at Cummings Airfield

Public forecast

Using degrees Fahrenheit for public forecast. Weather courtesy of forecast.io.

Closest aviation weather report (METAR) to Cummings Airfield

Closest report is Buffalo Niagara International Airport, 14.5 nm (26.8 km) NW.

2024/05/28 00:54 (retrieved 1 hour ago)

KBUF 280054Z 23017G27KT 10SM BKN016 BKN045 OVC060 17/13 A2962 RMK AO2 PK WND 23033/0002 SLP029 OCNL BINOVC T01670133

Closest aviation forecast (TAF) to Cummings Airfield

Closest forecast is Niagara District Airport, 38.9 nm (72.1 km) NW.

2024/05/27 20:00 (retrieved 6 hours ago)

TAF CYSN 271940Z 2720/2801 23020G30KT P6SM BKN030 OVC120 TEMPO 2720/2801 BKN020 OVC120 BECMG 2722/2724 23015KT RMK NXT FCST BY 281300Z